PWSweather.com
Personal Weather Stations
Station Observations
KOHAVON11
Long Road Station, Avon, OH 44011

Long Road StationAvon, OH 44011

Lat: 41.437, Lon: -82.0477

Elevation: 686

Station Type: Davis Vantage Pro2

http://www.avon-weather.com

High Low Average
Temperature 19.7°F-6.8°C 14.8°F-9.6°C 16.7°F-8.5°C
Dew Point 16.3°F-8.7°C 9.5°F-12.5°C 12.3°F-10.9°C
Winds 22.0 mph 35.4 kmh Calm Calm 6.0 mph SW9.7 kmh SW
Wind Gusts 32.0 mph51.5 kmh -- 15.0 mph24.1 kmh
Humidity 86% 78% 82%
Pressure 30.65 in1037.9 mb 30.06 in1017.9 mb -
Precipitation 0.04 in1.0 mm - -
Hour Temp Dew Point Humidity Winds Wind Gusts Pressure Precip Precip Rate Daily Precip Total
12:02 AM 20.3°F-6.5°C 17.1°F-8.3°C 87% 11.0 mph NNW17.7 kmh NNW 24.0 mph38.6 kmh 30.05 in1017.6 mb 0.00 in0.0 mm 0.00 in0.0 mm 0.83 in21.1 mm
12:07 AM 20.2°F-6.6°C 16.7°F-8.5°C 86% 20.0 mph NNW32.2 kmh NNW 24.0 mph38.6 kmh 30.05 in1017.6 mb 0.00 in0.0 mm 0.00 in0.0 mm 0.83 in21.1 mm
12:12 AM 20.1°F-6.6°C 16.6°F-8.6°C 86% 18.0 mph NE29.0 kmh NE 24.0 mph38.6 kmh 30.05 in1017.6 mb 0.00 in0.0 mm 0.00 in0.0 mm 0.83 in21.1 mm
12:17 AM 20.1°F-6.6°C 16.6°F-8.6°C 86% 10.0 mph N16.1 kmh N 24.0 mph38.6 kmh 30.04 in1017.3 mb 0.00 in0.0 mm 0.00 in0.0 mm 0.83 in21.1 mm
12:22 AM 20.0°F-6.7°C 16.5°F-8.6°C 86% 19.0 mph 30.6 kmh 20.0 mph32.2 kmh 30.05 in1017.6 mb 0.00 in0.0 mm 0.00 in0.0 mm 0.83 in21.1 mm
12:27 AM 19.9°F-6.7°C 16.4°F-8.7°C 86% 14.0 mph NE22.5 kmh NE 23.0 mph37.0 kmh 30.04 in1017.3 mb 0.00 in0.0 mm 0.00 in0.0 mm 0.83 in21.1 mm
12:32 AM 19.8°F-6.8°C 16.4°F-8.7°C 86% 11.0 mph 17.7 kmh 27.0 mph43.5 kmh 30.05 in1017.6 mb 0.00 in0.0 mm 0.00 in0.0 mm 0.83 in21.1 mm
12:37 AM 19.8°F-6.8°C 16.4°F-8.7°C 86% 19.0 mph NNE30.6 kmh NNE 27.0 mph43.5 kmh 30.05 in1017.6 mb 0.00 in0.0 mm 0.00 in0.0 mm 0.83 in21.1 mm
12:42 AM 19.7°F-6.8°C 16.3°F-8.7°C 86% 16.0 mph N25.7 kmh N 27.0 mph43.5 kmh 30.05 in1017.6 mb 0.00 in0.0 mm 0.00 in0.0 mm 0.83 in21.1 mm
12:47 AM 19.7°F-6.8°C 16.3°F-8.7°C 86% 16.0 mph NNE25.7 kmh NNE 27.0 mph43.5 kmh 30.05 in1017.6 mb 0.00 in0.0 mm 0.00 in0.0 mm 0.83 in21.1 mm
12:52 AM 19.7°F-6.8°C 16.3°F-8.7°C 86% 16.0 mph N25.7 kmh N 27.0 mph43.5 kmh 30.06 in1017.9 mb 0.00 in0.0 mm 0.00 in0.0 mm 0.83 in21.1 mm
12:57 AM 19.8°F-6.8°C 16.4°F-8.7°C 86% 13.0 mph NNE20.9 kmh NNE 27.0 mph43.5 kmh 30.06 in1017.9 mb 0.00 in0.0 mm 0.00 in0.0 mm 0.83 in21.1 mm
01:02 AM 19.7°F-6.8°C 16.3°F-8.7°C 86% 5.0 mph NNW8.0 kmh NNW 27.0 mph43.5 kmh 30.07 in1018.3 mb 0.00 in0.0 mm 0.00 in0.0 mm 0.00 in0.0 mm
01:07 AM 19.7°F-6.8°C 16.3°F-8.7°C 86% 16.0 mph NE25.7 kmh NE 27.0 mph43.5 kmh 30.06 in1017.9 mb 0.00 in0.0 mm 0.00 in0.0 mm 0.00 in0.0 mm
01:12 AM 19.6°F-6.9°C 16.2°F-8.8°C 86% 14.0 mph NNW22.5 kmh NNW 26.0 mph41.8 kmh 30.06 in1017.9 mb 0.00 in0.0 mm 0.00 in0.0 mm 0.00 in0.0 mm
01:17 AM 19.6°F-6.9°C 16.2°F-8.8°C 86% 7.0 mph NNE11.3 kmh NNE 26.0 mph41.8 kmh 30.06 in1017.9 mb 0.00 in0.0 mm 0.00 in0.0 mm 0.00 in0.0 mm
01:22 AM 19.6°F-6.9°C 16.2°F-8.8°C 86% 15.0 mph NE24.1 kmh NE 22.0 mph35.4 kmh 30.06 in1017.9 mb 0.00 in0.0 mm 0.00 in0.0 mm 0.00 in0.0 mm
01:27 AM 19.5°F-6.9°C 16.1°F-8.8°C 86% 10.0 mph NW16.1 kmh NW 22.0 mph35.4 kmh 30.06 in1017.9 mb 0.00 in0.0 mm 0.00 in0.0 mm 0.00 in0.0 mm
01:32 AM 19.4°F-7.0°C 16.0°F-8.9°C 86% 8.0 mph 12.9 kmh 26.0 mph41.8 kmh 30.06 in1017.9 mb 0.00 in0.0 mm 0.00 in0.0 mm 0.00 in0.0 mm
01:37 AM 19.4°F-7.0°C 16.0°F-8.9°C 86% 21.0 mph NNE33.8 kmh NNE 26.0 mph41.8 kmh 30.06 in1017.9 mb 0.00 in0.0 mm 0.00 in0.0 mm 0.00 in0.0 mm
01:42 AM 19.3°F-7.1°C 15.6°F-9.1°C 85% 22.0 mph NW35.4 kmh NW 32.0 mph51.5 kmh 30.07 in1018.3 mb 0.00 in0.0 mm 0.00 in0.0 mm 0.00 in0.0 mm
01:47 AM 19.3°F-7.1°C 15.6°F-9.1°C 85% 3.0 mph NW4.8 kmh NW 32.0 mph51.5 kmh 30.08 in1018.6 mb 0.00 in0.0 mm 0.00 in0.0 mm 0.00 in0.0 mm
01:52 AM 19.3°F-7.1°C 15.6°F-9.1°C 85% 5.0 mph N8.0 kmh N 32.0 mph51.5 kmh 30.08 in1018.6 mb 0.00 in0.0 mm 0.00 in0.0 mm 0.00 in0.0 mm
01:57 AM 19.3°F-7.1°C 15.6°F-9.1°C 85% 11.0 mph NNE17.7 kmh NNE 32.0 mph51.5 kmh 30.09 in1019.0 mb 0.00 in0.0 mm 0.00 in0.0 mm 0.00 in0.0 mm
02:02 AM 19.3°F-7.1°C 15.9°F-8.9°C 86% 5.0 mph 8.0 kmh 23.0 mph37.0 kmh 30.09 in1019.0 mb 0.00 in0.0 mm 0.00 in0.0 mm 0.00 in0.0 mm
02:07 AM 19.3°F-7.1°C 15.9°F-8.9°C 86% 5.0 mph NE8.0 kmh NE 23.0 mph37.0 kmh 30.10 in1019.3 mb 0.00 in0.0 mm 0.00 in0.0 mm 0.00 in0.0 mm
02:12 AM 19.2°F-7.1°C 15.5°F-9.2°C 85% 6.0 mph NNE9.7 kmh NNE 28.0 mph45.1 kmh 30.11 in1019.6 mb 0.00 in0.0 mm 0.00 in0.0 mm 0.00 in0.0 mm
02:17 AM 19.2°F-7.1°C 15.5°F-9.2°C 85% 22.0 mph NNE35.4 kmh NNE 28.0 mph45.1 kmh 30.11 in1019.6 mb 0.00 in0.0 mm 0.00 in0.0 mm 0.00 in0.0 mm
02:22 AM 19.2°F-7.1°C 15.5°F-9.2°C 85% 15.0 mph NNE24.1 kmh NNE 28.0 mph45.1 kmh 30.12 in1020.0 mb 0.00 in0.0 mm 0.00 in0.0 mm 0.00 in0.0 mm
02:27 AM 19.1°F-7.2°C 15.4°F-9.2°C 85% 10.0 mph NNE16.1 kmh NNE 28.0 mph45.1 kmh 30.11 in1019.6 mb 0.00 in0.0 mm 0.00 in0.0 mm 0.00 in0.0 mm
02:32 AM 19.1°F-7.2°C 15.4°F-9.2°C 85% 8.0 mph 12.9 kmh 24.0 mph38.6 kmh 30.11 in1019.6 mb 0.00 in0.0 mm 0.00 in0.0 mm 0.00 in0.0 mm
02:37 AM 19.1°F-7.2°C 15.4°F-9.2°C 85% 6.0 mph N9.7 kmh N 24.0 mph38.6 kmh 30.11 in1019.6 mb 0.00 in0.0 mm 0.00 in0.0 mm 0.00 in0.0 mm
02:42 AM 19.2°F-7.1°C 15.5°F-9.2°C 85% 17.0 mph N27.4 kmh N 24.0 mph38.6 kmh 30.12 in1020.0 mb 0.00 in0.0 mm 0.00 in0.0 mm 0.00 in0.0 mm
02:47 AM 19.3°F-7.1°C 15.9°F-8.9°C 86% 5.0 mph N8.0 kmh N 24.0 mph38.6 kmh 30.12 in1020.0 mb 0.00 in0.0 mm 0.00 in0.0 mm 0.00 in0.0 mm
02:52 AM 19.3°F-7.1°C 15.9°F-8.9°C 86% 9.0 mph N14.5 kmh N 18.0 mph29.0 kmh 30.12 in1020.0 mb 0.00 in0.0 mm 0.00 in0.0 mm 0.00 in0.0 mm
02:57 AM 19.4°F-7.0°C 16.0°F-8.9°C 86% 6.0 mph NNW9.7 kmh NNW 18.0 mph29.0 kmh 30.13 in1020.3 mb 0.00 in0.0 mm 0.00 in0.0 mm 0.00 in0.0 mm
03:02 AM 19.3°F-7.1°C 15.9°F-8.9°C 86% 7.0 mph NW11.3 kmh NW 16.0 mph25.7 kmh 30.13 in1020.3 mb 0.00 in0.0 mm 0.00 in0.0 mm 0.00 in0.0 mm
03:07 AM 19.1°F-7.2°C 15.4°F-9.2°C 85% 18.0 mph N29.0 kmh N 22.0 mph35.4 kmh 30.14 in1020.7 mb 0.00 in0.0 mm 0.00 in0.0 mm 0.00 in0.0 mm
03:12 AM 19.0°F-7.2°C 15.3°F-9.3°C 85% 8.0 mph NNE12.9 kmh NNE 22.0 mph35.4 kmh 30.14 in1020.7 mb 0.00 in0.0 mm 0.00 in0.0 mm 0.00 in0.0 mm
03:17 AM 18.9°F-7.3°C 15.2°F-9.3°C 85% 18.0 mph NNE29.0 kmh NNE 24.0 mph38.6 kmh 30.15 in1021.0 mb 0.00 in0.0 mm 0.00 in0.0 mm 0.00 in0.0 mm
03:22 AM 18.8°F-7.3°C 15.1°F-9.4°C 85% 6.0 mph NNW9.7 kmh NNW 24.0 mph38.6 kmh 30.15 in1021.0 mb 0.00 in0.0 mm 0.00 in0.0 mm 0.00 in0.0 mm
03:27 AM 18.7°F-7.4°C 15.0°F-9.4°C 85% 7.0 mph N11.3 kmh N 26.0 mph41.8 kmh 30.15 in1021.0 mb 0.00 in0.0 mm 0.00 in0.0 mm 0.00 in0.0 mm
03:32 AM 18.8°F-7.3°C 15.1°F-9.4°C 85% 3.0 mph N4.8 kmh N 26.0 mph41.8 kmh 30.15 in1021.0 mb 0.00 in0.0 mm 0.00 in0.0 mm 0.00 in0.0 mm
03:37 AM 18.8°F-7.3°C 15.1°F-9.4°C 85% 7.0 mph NNW11.3 kmh NNW 26.0 mph41.8 kmh 30.15 in1021.0 mb 0.00 in0.0 mm 0.00 in0.0 mm 0.00 in0.0 mm
03:42 AM 18.9°F-7.3°C 15.2°F-9.3°C 85% 9.0 mph 14.5 kmh 26.0 mph41.8 kmh 30.16 in1021.3 mb 0.00 in0.0 mm 0.00 in0.0 mm 0.00 in0.0 mm
03:47 AM 18.9°F-7.3°C 15.2°F-9.3°C 85% 12.0 mph N19.3 kmh N 18.0 mph29.0 kmh 30.16 in1021.3 mb 0.00 in0.0 mm 0.00 in0.0 mm 0.00 in0.0 mm
03:52 AM 18.8°F-7.3°C 15.1°F-9.4°C 85% 7.0 mph NW11.3 kmh NW 25.0 mph40.2 kmh 30.16 in1021.3 mb 0.00 in0.0 mm 0.00 in0.0 mm 0.00 in0.0 mm
03:57 AM 18.8°F-7.3°C 15.1°F-9.4°C 85% 10.0 mph NNW16.1 kmh NNW 25.0 mph40.2 kmh 30.16 in1021.3 mb 0.00 in0.0 mm 0.00 in0.0 mm 0.00 in0.0 mm
04:02 AM 18.7°F-7.4°C 14.7°F-9.6°C 84% 6.0 mph N9.7 kmh N 25.0 mph40.2 kmh 30.16 in1021.3 mb 0.00 in0.0 mm 0.00 in0.0 mm 0.00 in0.0 mm
04:07 AM 18.7°F-7.4°C 15.0°F-9.4°C 85% 9.0 mph NE14.5 kmh NE 25.0 mph40.2 kmh 30.16 in1021.3 mb 0.00 in0.0 mm 0.00 in0.0 mm 0.00 in0.0 mm
04:12 AM 18.7°F-7.4°C 15.0°F-9.4°C 85% 16.0 mph N25.7 kmh N 20.0 mph32.2 kmh 30.17 in1021.7 mb 0.00 in0.0 mm 0.00 in0.0 mm 0.00 in0.0 mm
04:17 AM 18.7°F-7.4°C 15.0°F-9.4°C 85% 4.0 mph NNW6.4 kmh NNW 20.0 mph32.2 kmh 30.17 in1021.7 mb 0.00 in0.0 mm 0.00 in0.0 mm 0.00 in0.0 mm
04:22 AM 18.7°F-7.4°C 15.0°F-9.4°C 85% 7.0 mph NE11.3 kmh NE 20.0 mph32.2 kmh 30.17 in1021.7 mb 0.00 in0.0 mm 0.00 in0.0 mm 0.00 in0.0 mm
04:27 AM 18.7°F-7.4°C 15.0°F-9.4°C 85% 6.0 mph N9.7 kmh N 20.0 mph32.2 kmh 30.17 in1021.7 mb 0.00 in0.0 mm 0.00 in0.0 mm 0.00 in0.0 mm
04:32 AM 18.7°F-7.4°C 15.0°F-9.4°C 85% 8.0 mph N12.9 kmh N 18.0 mph29.0 kmh 30.17 in1021.7 mb 0.00 in0.0 mm 0.00 in0.0 mm 0.00 in0.0 mm
04:37 AM 18.6°F-7.4°C 14.9°F-9.5°C 85% 6.0 mph N9.7 kmh N 20.0 mph32.2 kmh 30.18 in1022.0 mb 0.00 in0.0 mm 0.00 in0.0 mm 0.00 in0.0 mm
04:42 AM 18.5°F-7.5°C 14.8°F-9.6°C 85% 8.0 mph NNE12.9 kmh NNE 20.0 mph32.2 kmh 30.18 in1022.0 mb 0.00 in0.0 mm 0.00 in0.0 mm 0.00 in0.0 mm
04:47 AM 18.5°F-7.5°C 14.8°F-9.6°C 85% 10.0 mph N16.1 kmh N 20.0 mph32.2 kmh 30.18 in1022.0 mb 0.00 in0.0 mm 0.00 in0.0 mm 0.00 in0.0 mm
04:52 AM 18.4°F-7.6°C 14.7°F-9.6°C 85% 4.0 mph NNW6.4 kmh NNW 20.0 mph32.2 kmh 30.18 in1022.0 mb 0.00 in0.0 mm 0.00 in0.0 mm 0.00 in0.0 mm
04:57 AM 18.3°F-7.6°C 14.6°F-9.7°C 85% 7.0 mph NE11.3 kmh NE 18.0 mph29.0 kmh 30.19 in1022.4 mb 0.00 in0.0 mm 0.00 in0.0 mm 0.00 in0.0 mm
05:02 AM 18.2°F-7.7°C 14.5°F-9.7°C 85% 4.0 mph N6.4 kmh N 18.0 mph29.0 kmh 30.19 in1022.4 mb 0.00 in0.0 mm 0.00 in0.0 mm 0.00 in0.0 mm
05:07 AM 18.2°F-7.7°C 14.5°F-9.7°C 85% 6.0 mph NNW9.7 kmh NNW 17.0 mph27.4 kmh 30.19 in1022.4 mb 0.00 in0.0 mm 0.00 in0.0 mm 0.00 in0.0 mm
05:12 AM 18.2°F-7.7°C 14.5°F-9.7°C 85% 13.0 mph N20.9 kmh N 17.0 mph27.4 kmh 30.19 in1022.4 mb 0.00 in0.0 mm 0.00 in0.0 mm 0.00 in0.0 mm
05:17 AM 18.2°F-7.7°C 14.5°F-9.7°C 85% 6.0 mph NNW9.7 kmh NNW 17.0 mph27.4 kmh 30.19 in1022.4 mb 0.00 in0.0 mm 0.00 in0.0 mm 0.00 in0.0 mm
05:22 AM 18.1°F-7.7°C 14.4°F-9.8°C 85% 6.0 mph NNW9.7 kmh NNW 17.0 mph27.4 kmh 30.20 in1022.7 mb 0.00 in0.0 mm 0.00 in0.0 mm 0.00 in0.0 mm
05:27 AM 18.0°F-7.8°C 14.3°F-9.8°C 85% 5.0 mph NE8.0 kmh NE 16.0 mph25.7 kmh 30.20 in1022.7 mb 0.00 in0.0 mm 0.00 in0.0 mm 0.00 in0.0 mm
05:32 AM 18.0°F-7.8°C 14.0°F-10.0°C 84% 11.0 mph N17.7 kmh N 21.0 mph33.8 kmh 30.20 in1022.7 mb 0.00 in0.0 mm 0.00 in0.0 mm 0.00 in0.0 mm
05:37 AM 18.0°F-7.8°C 14.0°F-10.0°C 84% 5.0 mph NE8.0 kmh NE 21.0 mph33.8 kmh 30.20 in1022.7 mb 0.00 in0.0 mm 0.00 in0.0 mm 0.00 in0.0 mm
05:42 AM 18.0°F-7.8°C 14.0°F-10.0°C 84% 5.0 mph NNW8.0 kmh NNW 21.0 mph33.8 kmh 30.20 in1022.7 mb 0.00 in0.0 mm 0.00 in0.0 mm 0.00 in0.0 mm
05:47 AM 18.0°F-7.8°C 14.0°F-10.0°C 84% 7.0 mph N11.3 kmh N 21.0 mph33.8 kmh 30.21 in1023.0 mb 0.00 in0.0 mm 0.00 in0.0 mm 0.00 in0.0 mm
05:52 AM 17.9°F-7.8°C 13.9°F-10.1°C 84% 12.0 mph NW19.3 kmh NW 17.0 mph27.4 kmh 30.21 in1023.0 mb 0.00 in0.0 mm 0.00 in0.0 mm 0.00 in0.0 mm
05:57 AM 17.9°F-7.8°C 13.9°F-10.1°C 84% 7.0 mph N11.3 kmh N 17.0 mph27.4 kmh 30.21 in1023.0 mb 0.00 in0.0 mm 0.00 in0.0 mm 0.00 in0.0 mm
06:02 AM 18.0°F-7.8°C 14.0°F-10.0°C 84% 6.0 mph NW9.7 kmh NW 15.0 mph24.1 kmh 30.22 in1023.4 mb 0.00 in0.0 mm 0.00 in0.0 mm 0.00 in0.0 mm
06:07 AM 18.0°F-7.8°C 14.3°F-9.8°C 85% 3.0 mph NNE4.8 kmh NNE 15.0 mph24.1 kmh 30.22 in1023.4 mb 0.00 in0.0 mm 0.00 in0.0 mm 0.00 in0.0 mm
06:12 AM 18.0°F-7.8°C 14.3°F-9.8°C 85% 8.0 mph NW12.9 kmh NW 16.0 mph25.7 kmh 30.22 in1023.4 mb 0.00 in0.0 mm 0.00 in0.0 mm 0.00 in0.0 mm
06:17 AM 18.1°F-7.7°C 14.4°F-9.8°C 85% 14.0 mph NNW22.5 kmh NNW 16.0 mph25.7 kmh 30.22 in1023.4 mb 0.00 in0.0 mm 0.00 in0.0 mm 0.00 in0.0 mm
06:22 AM 17.9°F-7.8°C 14.2°F-9.9°C 85% 4.0 mph WNW6.4 kmh WNW 16.0 mph25.7 kmh 30.22 in1023.4 mb 0.00 in0.0 mm 0.00 in0.0 mm 0.01 in0.3 mm
06:27 AM 17.9°F-7.8°C 14.2°F-9.9°C 85% 5.0 mph NNW8.0 kmh NNW 16.0 mph25.7 kmh 30.23 in1023.7 mb 0.00 in0.0 mm 0.00 in0.0 mm 0.01 in0.3 mm
06:32 AM 17.8°F-7.9°C 14.1°F-9.9°C 85% 4.0 mph NE6.4 kmh NE 18.0 mph29.0 kmh 30.23 in1023.7 mb 0.05 in1.3 mm 0.60 in15.2 mm 0.02 in0.5 mm
06:37 AM 17.7°F-7.9°C 14.0°F-10.0°C 85% 2.0 mph NE3.2 kmh NE 18.0 mph29.0 kmh 30.23 in1023.7 mb 0.05 in1.3 mm 0.00 in0.0 mm 0.02 in0.5 mm
06:42 AM 17.7°F-7.9°C 14.0°F-10.0°C 85% 7.0 mph WNW11.3 kmh WNW 18.0 mph29.0 kmh 30.24 in1024.0 mb 0.05 in1.3 mm 0.00 in0.0 mm 0.02 in0.5 mm
06:47 AM 17.6°F-8.0°C 13.9°F-10.1°C 85% 8.0 mph NW12.9 kmh NW 18.0 mph29.0 kmh 30.24 in1024.0 mb 0.04 in1.0 mm 0.00 in0.0 mm 0.03 in0.8 mm
06:52 AM 17.6°F-8.0°C 13.9°F-10.1°C 85% 5.0 mph N8.0 kmh N 14.0 mph22.5 kmh 30.24 in1024.0 mb 0.04 in1.0 mm 0.00 in0.0 mm 0.03 in0.8 mm
06:57 AM 17.6°F-8.0°C 13.9°F-10.1°C 85% 4.0 mph NW6.4 kmh NW 14.0 mph22.5 kmh 30.25 in1024.4 mb 0.04 in1.0 mm 0.00 in0.0 mm 0.03 in0.8 mm
07:02 AM 17.6°F-8.0°C 14.2°F-9.9°C 86% 6.0 mph NNW9.7 kmh NNW 13.0 mph20.9 kmh 30.25 in1024.4 mb 0.04 in1.0 mm 0.00 in0.0 mm 0.03 in0.8 mm
07:07 AM 17.5°F-8.1°C 14.1°F-9.9°C 86% 6.0 mph NNW9.7 kmh NNW 17.0 mph27.4 kmh 30.25 in1024.4 mb 0.00 in0.0 mm 0.00 in0.0 mm 0.03 in0.8 mm
07:12 AM 17.5°F-8.1°C 14.1°F-9.9°C 86% 5.0 mph NW8.0 kmh NW 17.0 mph27.4 kmh 30.25 in1024.4 mb 0.00 in0.0 mm 0.00 in0.0 mm 0.03 in0.8 mm
07:17 AM 17.5°F-8.1°C 13.8°F-10.1°C 85% 3.0 mph NNW4.8 kmh NNW 17.0 mph27.4 kmh 30.26 in1024.7 mb 0.00 in0.0 mm 0.00 in0.0 mm 0.03 in0.8 mm
07:22 AM 17.4°F-8.1°C 13.7°F-10.2°C 85% 4.0 mph N6.4 kmh N 17.0 mph27.4 kmh 30.26 in1024.7 mb 0.00 in0.0 mm 0.00 in0.0 mm 0.03 in0.8 mm
07:27 AM 17.3°F-8.2°C 13.6°F-10.2°C 85% 7.0 mph NW11.3 kmh NW 14.0 mph22.5 kmh 30.27 in1025.1 mb 0.00 in0.0 mm 0.00 in0.0 mm 0.03 in0.8 mm
07:32 AM 17.1°F-8.3°C 13.4°F-10.3°C 85% 5.0 mph NW8.0 kmh NW 17.0 mph27.4 kmh 30.27 in1025.1 mb 0.00 in0.0 mm 0.00 in0.0 mm 0.03 in0.8 mm
07:37 AM 17.0°F-8.3°C 13.3°F-10.4°C 85% 7.0 mph NW11.3 kmh NW 17.0 mph27.4 kmh 30.27 in1025.1 mb 0.00 in0.0 mm 0.00 in0.0 mm 0.03 in0.8 mm
07:42 AM 16.9°F-8.4°C 13.2°F-10.4°C 85% 7.0 mph WNW11.3 kmh WNW 17.0 mph27.4 kmh 30.28 in1025.4 mb 0.00 in0.0 mm 0.00 in0.0 mm 0.03 in0.8 mm
07:47 AM 16.8°F-8.4°C 13.1°F-10.5°C 85% 6.0 mph NNW9.7 kmh NNW 17.0 mph27.4 kmh 30.28 in1025.4 mb 0.00 in0.0 mm 0.00 in0.0 mm 0.03 in0.8 mm
07:52 AM 16.7°F-8.5°C 13.0°F-10.6°C 85% 8.0 mph 12.9 kmh 15.0 mph24.1 kmh 30.28 in1025.4 mb 0.00 in0.0 mm 0.00 in0.0 mm 0.03 in0.8 mm
07:57 AM 16.7°F-8.5°C 13.0°F-10.6°C 85% 6.0 mph NW9.7 kmh NW 15.0 mph24.1 kmh 30.29 in1025.7 mb 0.00 in0.0 mm 0.00 in0.0 mm 0.03 in0.8 mm
08:02 AM 16.6°F-8.6°C 12.9°F-10.6°C 85% 5.0 mph NNW8.0 kmh NNW 16.0 mph25.7 kmh 30.30 in1026.1 mb 0.00 in0.0 mm 0.00 in0.0 mm 0.03 in0.8 mm
08:07 AM 16.5°F-8.6°C 12.8°F-10.7°C 85% 5.0 mph WNW8.0 kmh WNW 16.0 mph25.7 kmh 30.30 in1026.1 mb 0.00 in0.0 mm 0.00 in0.0 mm 0.03 in0.8 mm
08:12 AM 16.4°F-8.7°C 12.7°F-10.7°C 85% 10.0 mph NW16.1 kmh NW 16.0 mph25.7 kmh 30.30 in1026.1 mb 0.00 in0.0 mm 0.00 in0.0 mm 0.03 in0.8 mm
08:17 AM 16.4°F-8.7°C 12.7°F-10.7°C 85% 4.0 mph NW6.4 kmh NW 16.0 mph25.7 kmh 30.31 in1026.4 mb 0.00 in0.0 mm 0.00 in0.0 mm 0.03 in0.8 mm
08:22 AM 16.4°F-8.7°C 12.7°F-10.7°C 85% 7.0 mph NNW11.3 kmh NNW 16.0 mph25.7 kmh 30.31 in1026.4 mb 0.00 in0.0 mm 0.00 in0.0 mm 0.03 in0.8 mm
08:27 AM 16.3°F-8.7°C 12.6°F-10.8°C 85% 4.0 mph NW6.4 kmh NW 16.0 mph25.7 kmh 30.31 in1026.4 mb 0.00 in0.0 mm 0.00 in0.0 mm 0.03 in0.8 mm
08:32 AM 16.2°F-8.8°C 12.6°F-10.8°C 85% 4.0 mph NW6.4 kmh NW 14.0 mph22.5 kmh 30.32 in1026.8 mb 0.00 in0.0 mm 0.00 in0.0 mm 0.03 in0.8 mm
08:37 AM 16.2°F-8.8°C 12.6°F-10.8°C 85% 4.0 mph NW6.4 kmh NW 14.0 mph22.5 kmh 30.32 in1026.8 mb 0.00 in0.0 mm 0.00 in0.0 mm 0.03 in0.8 mm
08:42 AM 16.1°F-8.8°C 12.5°F-10.8°C 85% 4.0 mph NW6.4 kmh NW 13.0 mph20.9 kmh 30.32 in1026.8 mb 0.00 in0.0 mm 0.00 in0.0 mm 0.03 in0.8 mm
08:47 AM 16.0°F-8.9°C 12.4°F-10.9°C 85% 8.0 mph NW12.9 kmh NW 16.0 mph25.7 kmh 30.33 in1027.1 mb 0.00 in0.0 mm 0.00 in0.0 mm 0.03 in0.8 mm
08:52 AM 16.0°F-8.9°C 12.4°F-10.9°C 85% 6.0 mph NW9.7 kmh NW 16.0 mph25.7 kmh 30.33 in1027.1 mb 0.00 in0.0 mm 0.00 in0.0 mm 0.03 in0.8 mm
08:57 AM 16.0°F-8.9°C 12.4°F-10.9°C 85% 6.0 mph N9.7 kmh N 19.0 mph30.6 kmh 30.33 in1027.1 mb 0.00 in0.0 mm 0.00 in0.0 mm 0.03 in0.8 mm
09:02 AM 16.0°F-8.9°C 12.4°F-10.9°C 85% 5.0 mph N8.0 kmh N 19.0 mph30.6 kmh 30.34 in1027.4 mb 0.00 in0.0 mm 0.00 in0.0 mm 0.03 in0.8 mm
09:07 AM 15.9°F-8.9°C 12.3°F-10.9°C 85% 9.0 mph NNW14.5 kmh NNW 19.0 mph30.6 kmh 30.34 in1027.4 mb 0.00 in0.0 mm 0.00 in0.0 mm 0.03 in0.8 mm
09:12 AM 15.9°F-8.9°C 12.3°F-10.9°C 85% 6.0 mph NW9.7 kmh NW 19.0 mph30.6 kmh 30.34 in1027.4 mb 0.00 in0.0 mm 0.00 in0.0 mm 0.03 in0.8 mm
09:17 AM 15.8°F-9.0°C 12.2°F-11.0°C 85% 9.0 mph WNW14.5 kmh WNW 14.0 mph22.5 kmh 30.34 in1027.4 mb 0.00 in0.0 mm 0.00 in0.0 mm 0.03 in0.8 mm
09:22 AM 15.8°F-9.0°C 12.2°F-11.0°C 85% 5.0 mph WNW8.0 kmh WNW 15.0 mph24.1 kmh 30.35 in1027.8 mb 0.00 in0.0 mm 0.00 in0.0 mm 0.03 in0.8 mm
09:27 AM 15.8°F-9.0°C 12.2°F-11.0°C 85% 8.0 mph N12.9 kmh N 16.0 mph25.7 kmh 30.35 in1027.8 mb 0.00 in0.0 mm 0.00 in0.0 mm 0.03 in0.8 mm
09:32 AM 15.8°F-9.0°C 12.2°F-11.0°C 85% 5.0 mph NW8.0 kmh NW 16.0 mph25.7 kmh 30.35 in1027.8 mb 0.00 in0.0 mm 0.00 in0.0 mm 0.03 in0.8 mm
09:37 AM 15.8°F-9.0°C 12.2°F-11.0°C 85% 4.0 mph 6.4 kmh 16.0 mph25.7 kmh 30.36 in1028.1 mb 0.00 in0.0 mm 0.00 in0.0 mm 0.03 in0.8 mm
09:42 AM 15.8°F-9.0°C 12.2°F-11.0°C 85% 4.0 mph NW6.4 kmh NW 16.0 mph25.7 kmh 30.36 in1028.1 mb 0.00 in0.0 mm 0.00 in0.0 mm 0.03 in0.8 mm
09:47 AM 15.8°F-9.0°C 12.2°F-11.0°C 85% 5.0 mph NNW8.0 kmh NNW 12.0 mph19.3 kmh 30.36 in1028.1 mb 0.00 in0.0 mm 0.00 in0.0 mm 0.03 in0.8 mm
09:52 AM 15.8°F-9.0°C 12.2°F-11.0°C 85% 3.0 mph NNW4.8 kmh NNW 14.0 mph22.5 kmh 30.37 in1028.4 mb 0.00 in0.0 mm 0.00 in0.0 mm 0.03 in0.8 mm
09:57 AM 15.8°F-9.0°C 12.2°F-11.0°C 85% 7.0 mph NW11.3 kmh NW 14.0 mph22.5 kmh 30.37 in1028.4 mb 0.00 in0.0 mm 0.00 in0.0 mm 0.03 in0.8 mm
10:02 AM 15.8°F-9.0°C 11.9°F-11.2°C 84% 3.0 mph NNW4.8 kmh NNW 14.0 mph22.5 kmh 30.37 in1028.4 mb 0.00 in0.0 mm 0.00 in0.0 mm 0.03 in0.8 mm
10:07 AM 15.9°F-8.9°C 12.0°F-11.1°C 84% 13.0 mph N20.9 kmh N 14.0 mph22.5 kmh 30.37 in1028.4 mb 0.00 in0.0 mm 0.00 in0.0 mm 0.03 in0.8 mm
10:12 AM 15.9°F-8.9°C 12.0°F-11.1°C 84% 7.0 mph N11.3 kmh N 16.0 mph25.7 kmh 30.37 in1028.4 mb 0.00 in0.0 mm 0.00 in0.0 mm 0.03 in0.8 mm
10:17 AM 15.9°F-8.9°C 12.0°F-11.1°C 84% 5.0 mph NNW8.0 kmh NNW 16.0 mph25.7 kmh 30.37 in1028.4 mb 0.00 in0.0 mm 0.00 in0.0 mm 0.03 in0.8 mm
10:22 AM 16.0°F-8.9°C 12.1°F-11.1°C 84% 4.0 mph NW6.4 kmh NW 16.0 mph25.7 kmh 30.38 in1028.8 mb 0.00 in0.0 mm 0.00 in0.0 mm 0.03 in0.8 mm
10:27 AM 16.0°F-8.9°C 12.1°F-11.1°C 84% 5.0 mph NW8.0 kmh NW 16.0 mph25.7 kmh 30.38 in1028.8 mb 0.00 in0.0 mm 0.00 in0.0 mm 0.03 in0.8 mm
10:32 AM 16.1°F-8.8°C 12.2°F-11.0°C 84% 9.0 mph NW14.5 kmh NW 16.0 mph25.7 kmh 30.38 in1028.8 mb 0.00 in0.0 mm 0.00 in0.0 mm 0.03 in0.8 mm
10:37 AM 16.1°F-8.8°C 12.2°F-11.0°C 84% 3.0 mph NW4.8 kmh NW 16.0 mph25.7 kmh 30.39 in1029.1 mb 0.00 in0.0 mm 0.00 in0.0 mm 0.03 in0.8 mm
10:42 AM 16.1°F-8.8°C 12.2°F-11.0°C 84% 4.0 mph NNW6.4 kmh NNW 16.0 mph25.7 kmh 30.39 in1029.1 mb 0.00 in0.0 mm 0.00 in0.0 mm 0.03 in0.8 mm
10:47 AM 16.1°F-8.8°C 12.2°F-11.0°C 84% 11.0 mph NW17.7 kmh NW 16.0 mph25.7 kmh 30.39 in1029.1 mb 0.00 in0.0 mm 0.00 in0.0 mm 0.03 in0.8 mm
10:52 AM 16.2°F-8.8°C 12.3°F-10.9°C 84% 5.0 mph NNW8.0 kmh NNW 16.0 mph25.7 kmh 30.40 in1029.5 mb 0.00 in0.0 mm 0.00 in0.0 mm 0.03 in0.8 mm
10:57 AM 16.3°F-8.7°C 12.4°F-10.9°C 84% 6.0 mph NW9.7 kmh NW 16.0 mph25.7 kmh 30.40 in1029.5 mb 0.00 in0.0 mm 0.00 in0.0 mm 0.03 in0.8 mm
11:02 AM 16.3°F-8.7°C 12.4°F-10.9°C 84% 6.0 mph NW9.7 kmh NW 15.0 mph24.1 kmh 30.40 in1029.5 mb 0.00 in0.0 mm 0.00 in0.0 mm 0.03 in0.8 mm
11:07 AM 16.4°F-8.7°C 12.5°F-10.8°C 84% 7.0 mph NNW11.3 kmh NNW 15.0 mph24.1 kmh 30.41 in1029.8 mb 0.00 in0.0 mm 0.00 in0.0 mm 0.03 in0.8 mm
11:12 AM 16.4°F-8.7°C 12.5°F-10.8°C 84% 5.0 mph N8.0 kmh N 13.0 mph20.9 kmh 30.41 in1029.8 mb 0.00 in0.0 mm 0.00 in0.0 mm 0.03 in0.8 mm
11:17 AM 16.5°F-8.6°C 12.6°F-10.8°C 84% 11.0 mph NE17.7 kmh NE 16.0 mph25.7 kmh 30.41 in1029.8 mb 0.00 in0.0 mm 0.00 in0.0 mm 0.03 in0.8 mm
11:22 AM 16.5°F-8.6°C 12.6°F-10.8°C 84% 9.0 mph NNW14.5 kmh NNW 18.0 mph29.0 kmh 30.42 in1030.1 mb 0.00 in0.0 mm 0.00 in0.0 mm 0.03 in0.8 mm
11:27 AM 16.6°F-8.6°C 12.7°F-10.7°C 84% 14.0 mph NE22.5 kmh NE 18.0 mph29.0 kmh 30.42 in1030.1 mb 0.00 in0.0 mm 0.00 in0.0 mm 0.03 in0.8 mm
11:32 AM 16.6°F-8.6°C 12.7°F-10.7°C 84% 13.0 mph NW20.9 kmh NW 18.0 mph29.0 kmh 30.42 in1030.1 mb 0.00 in0.0 mm 0.00 in0.0 mm 0.03 in0.8 mm
11:37 AM 16.6°F-8.6°C 12.7°F-10.7°C 84% 10.0 mph NW16.1 kmh NW 19.0 mph30.6 kmh 30.43 in1030.5 mb 0.00 in0.0 mm 0.00 in0.0 mm 0.03 in0.8 mm
11:42 AM 16.5°F-8.6°C 12.3°F-10.9°C 83% 6.0 mph NW9.7 kmh NW 19.0 mph30.6 kmh 30.43 in1030.5 mb 0.00 in0.0 mm 0.00 in0.0 mm 0.03 in0.8 mm
11:47 AM 16.5°F-8.6°C 12.3°F-10.9°C 83% 4.0 mph NNW6.4 kmh NNW 19.0 mph30.6 kmh 30.43 in1030.5 mb 0.00 in0.0 mm 0.00 in0.0 mm 0.03 in0.8 mm
11:52 AM 16.5°F-8.6°C 12.3°F-10.9°C 83% 4.0 mph NW6.4 kmh NW 19.0 mph30.6 kmh 30.43 in1030.5 mb 0.00 in0.0 mm 0.00 in0.0 mm 0.03 in0.8 mm
11:57 AM 16.6°F-8.6°C 12.7°F-10.7°C 84% 7.0 mph WNW11.3 kmh WNW 19.0 mph30.6 kmh 30.43 in1030.5 mb 0.00 in0.0 mm 0.00 in0.0 mm 0.03 in0.8 mm
12:02 PM 16.5°F-8.6°C 12.3°F-10.9°C 83% 7.0 mph NNW11.3 kmh NNW 19.0 mph30.6 kmh 30.43 in1030.5 mb 0.00 in0.0 mm 0.00 in0.0 mm 0.03 in0.8 mm
12:07 PM 16.6°F-8.6°C 12.4°F-10.9°C 83% 5.0 mph NW8.0 kmh NW 17.0 mph27.4 kmh 30.44 in1030.8 mb 0.00 in0.0 mm 0.00 in0.0 mm 0.03 in0.8 mm
12:12 PM 16.6°F-8.6°C 12.4°F-10.9°C 83% 8.0 mph WNW12.9 kmh WNW 17.0 mph27.4 kmh 30.43 in1030.5 mb 0.00 in0.0 mm 0.00 in0.0 mm 0.03 in0.8 mm
12:17 PM 16.6°F-8.6°C 12.4°F-10.9°C 83% 11.0 mph NNW17.7 kmh NNW 14.0 mph22.5 kmh 30.43 in1030.5 mb 0.00 in0.0 mm 0.00 in0.0 mm 0.03 in0.8 mm
12:22 PM 16.6°F-8.6°C 12.4°F-10.9°C 83% 4.0 mph N6.4 kmh N 15.0 mph24.1 kmh 30.43 in1030.5 mb 0.00 in0.0 mm 0.00 in0.0 mm 0.03 in0.8 mm
12:27 PM 16.7°F-8.5°C 12.5°F-10.8°C 83% 6.0 mph N9.7 kmh N 17.0 mph27.4 kmh 30.43 in1030.5 mb 0.00 in0.0 mm 0.00 in0.0 mm 0.03 in0.8 mm
12:32 PM 16.7°F-8.5°C 12.5°F-10.8°C 83% 2.0 mph N3.2 kmh N 17.0 mph27.4 kmh 30.44 in1030.8 mb 0.00 in0.0 mm 0.00 in0.0 mm 0.03 in0.8 mm
12:37 PM 16.6°F-8.6°C 12.4°F-10.9°C 83% 6.0 mph NNW9.7 kmh NNW 17.0 mph27.4 kmh 30.44 in1030.8 mb 0.00 in0.0 mm 0.00 in0.0 mm 0.03 in0.8 mm
12:42 PM 16.6°F-8.6°C 12.4°F-10.9°C 83% 5.0 mph NNW8.0 kmh NNW 17.0 mph27.4 kmh 30.44 in1030.8 mb 0.00 in0.0 mm 0.00 in0.0 mm 0.03 in0.8 mm
12:47 PM 16.7°F-8.5°C 12.5°F-10.8°C 83% 6.0 mph WNW9.7 kmh WNW 14.0 mph22.5 kmh 30.44 in1030.8 mb 0.00 in0.0 mm 0.00 in0.0 mm 0.03 in0.8 mm
12:52 PM 16.8°F-8.4°C 12.6°F-10.8°C 83% 4.0 mph NW6.4 kmh NW 14.0 mph22.5 kmh 30.44 in1030.8 mb 0.00 in0.0 mm 0.00 in0.0 mm 0.03 in0.8 mm
12:57 PM 16.7°F-8.5°C 12.5°F-10.8°C 83% 6.0 mph NNW9.7 kmh NNW 13.0 mph20.9 kmh 30.44 in1030.8 mb 0.00 in0.0 mm 0.00 in0.0 mm 0.03 in0.8 mm
01:02 PM 16.6°F-8.6°C 12.4°F-10.9°C 83% 8.0 mph NW12.9 kmh NW 13.0 mph20.9 kmh 30.44 in1030.8 mb 0.00 in0.0 mm 0.00 in0.0 mm 0.03 in0.8 mm
01:07 PM 16.5°F-8.6°C 12.3°F-10.9°C 83% 7.0 mph NNW11.3 kmh NNW 16.0 mph25.7 kmh 30.44 in1030.8 mb 0.00 in0.0 mm 0.00 in0.0 mm 0.03 in0.8 mm
01:12 PM 16.5°F-8.6°C 12.3°F-10.9°C 83% 6.0 mph NW9.7 kmh NW 17.0 mph27.4 kmh 30.44 in1030.8 mb 0.00 in0.0 mm 0.00 in0.0 mm 0.03 in0.8 mm
01:17 PM 16.6°F-8.6°C 12.4°F-10.9°C 83% 12.0 mph 19.3 kmh 17.0 mph27.4 kmh 30.44 in1030.8 mb 0.00 in0.0 mm 0.00 in0.0 mm 0.03 in0.8 mm
01:39 PM 16.8°F-8.4°C 12.3°F-10.9°C 82% 7.0 mph NNW11.3 kmh NNW 12.0 mph19.3 kmh 30.45 in1031.2 mb 0.00 in0.0 mm 0.00 in0.0 mm 0.03 in0.8 mm
01:44 PM 16.8°F-8.4°C 12.3°F-10.9°C 82% 4.0 mph N6.4 kmh N 16.0 mph25.7 kmh 30.45 in1031.2 mb 0.00 in0.0 mm 0.00 in0.0 mm 0.03 in0.8 mm
01:49 PM 16.8°F-8.4°C 12.3°F-10.9°C 82% 11.0 mph NNW17.7 kmh NNW 16.0 mph25.7 kmh 30.45 in1031.2 mb 0.00 in0.0 mm 0.00 in0.0 mm 0.03 in0.8 mm
01:54 PM 16.8°F-8.4°C 12.3°F-10.9°C 82% 2.0 mph N3.2 kmh N 16.0 mph25.7 kmh 30.45 in1031.2 mb 0.00 in0.0 mm 0.00 in0.0 mm 0.03 in0.8 mm
01:59 PM 16.8°F-8.4°C 12.3°F-10.9°C 82% 6.0 mph N9.7 kmh N 16.0 mph25.7 kmh 30.45 in1031.2 mb 0.00 in0.0 mm 0.00 in0.0 mm 0.03 in0.8 mm
02:04 PM 16.8°F-8.4°C 12.3°F-10.9°C 82% 12.0 mph NW19.3 kmh NW 16.0 mph25.7 kmh 30.45 in1031.2 mb 0.00 in0.0 mm 0.00 in0.0 mm 0.03 in0.8 mm
02:09 PM 16.9°F-8.4°C 12.4°F-10.9°C 82% 6.0 mph NW9.7 kmh NW 16.0 mph25.7 kmh 30.45 in1031.2 mb 0.00 in0.0 mm 0.00 in0.0 mm 0.03 in0.8 mm
02:14 PM 16.9°F-8.4°C 12.4°F-10.9°C 82% 8.0 mph NNW12.9 kmh NNW 15.0 mph24.1 kmh 30.45 in1031.2 mb 0.00 in0.0 mm 0.00 in0.0 mm 0.03 in0.8 mm
02:19 PM 16.9°F-8.4°C 12.4°F-10.9°C 82% 8.0 mph NW12.9 kmh NW 15.0 mph24.1 kmh 30.45 in1031.2 mb 0.00 in0.0 mm 0.00 in0.0 mm 0.03 in0.8 mm
02:24 PM 16.8°F-8.4°C 12.0°F-11.1°C 81% 19.0 mph NNW30.6 kmh NNW 19.0 mph30.6 kmh 30.46 in1031.5 mb 0.00 in0.0 mm 0.00 in0.0 mm 0.03 in0.8 mm
02:29 PM 16.7°F-8.5°C 12.2°F-11.0°C 82% 7.0 mph N11.3 kmh N 19.0 mph30.6 kmh 30.46 in1031.5 mb 0.00 in0.0 mm 0.00 in0.0 mm 0.03 in0.8 mm
02:34 PM 16.7°F-8.5°C 11.9°F-11.2°C 81% 4.0 mph NW6.4 kmh NW 19.0 mph30.6 kmh 30.46 in1031.5 mb 0.00 in0.0 mm 0.00 in0.0 mm 0.03 in0.8 mm
02:39 PM 16.9°F-8.4°C 12.4°F-10.9°C 82% 5.0 mph NW8.0 kmh NW 19.0 mph30.6 kmh 30.46 in1031.5 mb 0.00 in0.0 mm 0.00 in0.0 mm 0.03 in0.8 mm
02:44 PM 16.9°F-8.4°C 12.4°F-10.9°C 82% 3.0 mph NW4.8 kmh NW 19.0 mph30.6 kmh 30.46 in1031.5 mb 0.00 in0.0 mm 0.00 in0.0 mm 0.03 in0.8 mm
02:49 PM 16.9°F-8.4°C 12.1°F-11.1°C 81% 6.0 mph NW9.7 kmh NW 13.0 mph20.9 kmh 30.47 in1031.8 mb 0.00 in0.0 mm 0.00 in0.0 mm 0.03 in0.8 mm
02:54 PM 16.7°F-8.5°C 11.9°F-11.2°C 81% 4.0 mph NNE6.4 kmh NNE 17.0 mph27.4 kmh 30.47 in1031.8 mb 0.00 in0.0 mm 0.00 in0.0 mm 0.03 in0.8 mm
02:59 PM 16.6°F-8.6°C 11.8°F-11.2°C 81% 5.0 mph NNW8.0 kmh NNW 17.0 mph27.4 kmh 30.47 in1031.8 mb 0.00 in0.0 mm 0.00 in0.0 mm 0.03 in0.8 mm
03:04 PM 16.5°F-8.6°C 11.7°F-11.3°C 81% 7.0 mph N11.3 kmh N 17.0 mph27.4 kmh 30.47 in1031.8 mb 0.00 in0.0 mm 0.00 in0.0 mm 0.03 in0.8 mm
03:09 PM 16.6°F-8.6°C 11.8°F-11.2°C 81% 8.0 mph NNW12.9 kmh NNW 17.0 mph27.4 kmh 30.47 in1031.8 mb 0.00 in0.0 mm 0.00 in0.0 mm 0.03 in0.8 mm
03:14 PM 16.5°F-8.6°C 11.7°F-11.3°C 81% 10.0 mph NW16.1 kmh NW 16.0 mph25.7 kmh 30.48 in1032.2 mb 0.00 in0.0 mm 0.00 in0.0 mm 0.03 in0.8 mm
03:19 PM 16.7°F-8.5°C 11.9°F-11.2°C 81% 6.0 mph NE9.7 kmh NE 16.0 mph25.7 kmh 30.48 in1032.2 mb 0.00 in0.0 mm 0.00 in0.0 mm 0.03 in0.8 mm
03:24 PM 16.7°F-8.5°C 11.9°F-11.2°C 81% 11.0 mph NW17.7 kmh NW 17.0 mph27.4 kmh 30.48 in1032.2 mb 0.00 in0.0 mm 0.00 in0.0 mm 0.03 in0.8 mm
03:29 PM 16.7°F-8.5°C 11.6°F-11.3°C 80% 7.0 mph NW11.3 kmh NW 17.0 mph27.4 kmh 30.48 in1032.2 mb 0.00 in0.0 mm 0.00 in0.0 mm 0.03 in0.8 mm
03:34 PM 16.7°F-8.5°C 11.9°F-11.2°C 81% 6.0 mph NNE9.7 kmh NNE 17.0 mph27.4 kmh 30.49 in1032.5 mb 0.00 in0.0 mm 0.00 in0.0 mm 0.03 in0.8 mm
03:39 PM 16.6°F-8.6°C 11.5°F-11.4°C 80% 10.0 mph NW16.1 kmh NW 17.0 mph27.4 kmh 30.49 in1032.5 mb 0.00 in0.0 mm 0.00 in0.0 mm 0.03 in0.8 mm
03:44 PM 16.6°F-8.6°C 11.5°F-11.4°C 80% 4.0 mph NNE6.4 kmh NNE 12.0 mph19.3 kmh 30.49 in1032.5 mb 0.00 in0.0 mm 0.00 in0.0 mm 0.03 in0.8 mm
03:49 PM 16.7°F-8.5°C 11.6°F-11.3°C 80% 5.0 mph NNE8.0 kmh NNE 13.0 mph20.9 kmh 30.50 in1032.8 mb 0.00 in0.0 mm 0.00 in0.0 mm 0.03 in0.8 mm
03:54 PM 16.7°F-8.5°C 11.6°F-11.3°C 80% 5.0 mph NW8.0 kmh NW 13.0 mph20.9 kmh 30.50 in1032.8 mb 0.00 in0.0 mm 0.00 in0.0 mm 0.03 in0.8 mm
03:59 PM 16.6°F-8.6°C 11.5°F-11.4°C 80% 9.0 mph NNE14.5 kmh NNE 13.0 mph20.9 kmh 30.50 in1032.8 mb 0.00 in0.0 mm 0.00 in0.0 mm 0.03 in0.8 mm
04:04 PM 16.6°F-8.6°C 11.5°F-11.4°C 80% 1.0 mph NW1.6 kmh NW 13.0 mph20.9 kmh 30.51 in1033.2 mb 0.00 in0.0 mm 0.00 in0.0 mm 0.03 in0.8 mm
04:09 PM 16.5°F-8.6°C 11.4°F-11.4°C 80% 10.0 mph WNW16.1 kmh WNW 12.0 mph19.3 kmh 30.51 in1033.2 mb 0.00 in0.0 mm 0.00 in0.0 mm 0.03 in0.8 mm
04:14 PM 16.5°F-8.6°C 11.4°F-11.4°C 80% 7.0 mph NNW11.3 kmh NNW 14.0 mph22.5 kmh 30.51 in1033.2 mb 0.00 in0.0 mm 0.00 in0.0 mm 0.03 in0.8 mm
04:19 PM 16.5°F-8.6°C 11.4°F-11.4°C 80% 6.0 mph NNW9.7 kmh NNW 14.0 mph22.5 kmh 30.51 in1033.2 mb 0.00 in0.0 mm 0.00 in0.0 mm 0.03 in0.8 mm
04:24 PM 16.5°F-8.6°C 11.4°F-11.4°C 80% 8.0 mph NE12.9 kmh NE 14.0 mph22.5 kmh 30.52 in1033.5 mb 0.00 in0.0 mm 0.00 in0.0 mm 0.03 in0.8 mm
04:29 PM 16.5°F-8.6°C 11.4°F-11.4°C 80% 7.0 mph NW11.3 kmh NW 14.0 mph22.5 kmh 30.52 in1033.5 mb 0.00 in0.0 mm 0.00 in0.0 mm 0.03 in0.8 mm
04:34 PM 16.5°F-8.6°C 11.4°F-11.4°C 80% 7.0 mph NE11.3 kmh NE 12.0 mph19.3 kmh 30.52 in1033.5 mb 0.00 in0.0 mm 0.00 in0.0 mm 0.03 in0.8 mm
04:39 PM 16.5°F-8.6°C 11.4°F-11.4°C 80% 7.0 mph NNE11.3 kmh NNE 12.0 mph19.3 kmh 30.52 in1033.5 mb 0.00 in0.0 mm 0.00 in0.0 mm 0.03 in0.8 mm
04:44 PM 16.4°F-8.7°C 11.3°F-11.5°C 80% 6.0 mph NNE9.7 kmh NNE 11.0 mph17.7 kmh 30.52 in1033.5 mb 0.00 in0.0 mm 0.00 in0.0 mm 0.03 in0.8 mm
04:49 PM 16.3°F-8.7°C 11.3°F-11.5°C 80% 3.0 mph NNW4.8 kmh NNW 11.0 mph17.7 kmh 30.52 in1033.5 mb 0.00 in0.0 mm 0.00 in0.0 mm 0.04 in1.0 mm
04:54 PM 16.1°F-8.8°C 10.8°F-11.8°C 79% 5.0 mph NW8.0 kmh NW 13.0 mph20.9 kmh 30.52 in1033.5 mb 0.00 in0.0 mm 0.00 in0.0 mm 0.04 in1.0 mm
04:59 PM 16.0°F-8.9°C 10.7°F-11.8°C 79% 4.0 mph NW6.4 kmh NW 13.0 mph20.9 kmh 30.52 in1033.5 mb 0.00 in0.0 mm 0.00 in0.0 mm 0.04 in1.0 mm
05:04 PM 16.0°F-8.9°C 10.7°F-11.8°C 79% 1.0 mph N1.6 kmh N 13.0 mph20.9 kmh 30.53 in1033.9 mb 0.00 in0.0 mm 0.00 in0.0 mm 0.04 in1.0 mm
05:09 PM 16.0°F-8.9°C 11.0°F-11.7°C 80% 3.0 mph 4.8 kmh 13.0 mph20.9 kmh 30.53 in1033.9 mb 0.00 in0.0 mm 0.00 in0.0 mm 0.04 in1.0 mm
05:14 PM 16.0°F-8.9°C 11.0°F-11.7°C 80% 4.0 mph NW6.4 kmh NW 9.0 mph14.5 kmh 30.53 in1033.9 mb 0.00 in0.0 mm 0.00 in0.0 mm 0.04 in1.0 mm
05:19 PM 16.0°F-8.9°C 11.0°F-11.7°C 80% 5.0 mph 8.0 kmh 9.0 mph14.5 kmh 30.53 in1033.9 mb 0.00 in0.0 mm 0.00 in0.0 mm 0.04 in1.0 mm
05:24 PM 16.0°F-8.9°C 11.0°F-11.7°C 80% 3.0 mph NW4.8 kmh NW 9.0 mph14.5 kmh 30.53 in1033.9 mb 0.00 in0.0 mm 0.00 in0.0 mm 0.04 in1.0 mm
05:29 PM 16.0°F-8.9°C 11.0°F-11.7°C 80% 5.0 mph NW8.0 kmh NW 9.0 mph14.5 kmh 30.53 in1033.9 mb 0.00 in0.0 mm 0.00 in0.0 mm 0.04 in1.0 mm
05:34 PM 16.0°F-8.9°C 11.0°F-11.7°C 80% 3.0 mph NNE4.8 kmh NNE 11.0 mph17.7 kmh 30.53 in1033.9 mb 0.00 in0.0 mm 0.00 in0.0 mm 0.04 in1.0 mm
05:39 PM 15.9°F-8.9°C 10.6°F-11.9°C 79% 9.0 mph NNE14.5 kmh NNE 15.0 mph24.1 kmh 30.53 in1033.9 mb 0.00 in0.0 mm 0.00 in0.0 mm 0.04 in1.0 mm
05:44 PM 15.8°F-9.0°C 10.5°F-11.9°C 79% 8.0 mph NNW12.9 kmh NNW 15.0 mph24.1 kmh 30.54 in1034.2 mb 0.00 in0.0 mm 0.00 in0.0 mm 0.04 in1.0 mm
05:49 PM 15.7°F-9.1°C 10.4°F-12.0°C 79% 3.0 mph 4.8 kmh 15.0 mph24.1 kmh 30.54 in1034.2 mb 0.00 in0.0 mm 0.00 in0.0 mm 0.04 in1.0 mm
05:54 PM 15.7°F-9.1°C 10.4°F-12.0°C 79% 3.0 mph N4.8 kmh N 15.0 mph24.1 kmh 30.54 in1034.2 mb 0.00 in0.0 mm 0.00 in0.0 mm 0.04 in1.0 mm
05:59 PM 15.6°F-9.1°C 10.3°F-12.1°C 79% 6.0 mph NNW9.7 kmh NNW 14.0 mph22.5 kmh 30.54 in1034.2 mb 0.00 in0.0 mm 0.00 in0.0 mm 0.04 in1.0 mm
06:04 PM 15.6°F-9.1°C 10.3°F-12.1°C 79% 8.0 mph NE12.9 kmh NE 14.0 mph22.5 kmh 30.54 in1034.2 mb 0.00 in0.0 mm 0.00 in0.0 mm 0.04 in1.0 mm
06:09 PM 15.5°F-9.2°C 9.9°F-12.3°C 78% 2.0 mph N3.2 kmh N 13.0 mph20.9 kmh 30.54 in1034.2 mb 0.00 in0.0 mm 0.00 in0.0 mm 0.04 in1.0 mm
06:14 PM 15.5°F-9.2°C 10.2°F-12.1°C 79% 6.0 mph N9.7 kmh N 15.0 mph24.1 kmh 30.54 in1034.2 mb 0.00 in0.0 mm 0.00 in0.0 mm 0.04 in1.0 mm
06:19 PM 15.4°F-9.2°C 9.8°F-12.3°C 78% 7.0 mph NW11.3 kmh NW 15.0 mph24.1 kmh 30.54 in1034.2 mb 0.00 in0.0 mm 0.00 in0.0 mm 0.04 in1.0 mm
06:24 PM 15.3°F-9.3°C 9.7°F-12.4°C 78% 12.0 mph N19.3 kmh N 15.0 mph24.1 kmh 30.54 in1034.2 mb 0.00 in0.0 mm 0.00 in0.0 mm 0.04 in1.0 mm
06:29 PM 15.3°F-9.3°C 9.7°F-12.4°C 78% 3.0 mph N4.8 kmh N 15.0 mph24.1 kmh 30.54 in1034.2 mb 0.00 in0.0 mm 0.00 in0.0 mm 0.04 in1.0 mm
06:34 PM 15.2°F-9.3°C 9.6°F-12.4°C 78% 4.0 mph NNW6.4 kmh NNW 14.0 mph22.5 kmh 30.54 in1034.2 mb 0.00 in0.0 mm 0.00 in0.0 mm 0.04 in1.0 mm
06:39 PM 15.2°F-9.3°C 9.6°F-12.4°C 78% 2.0 mph 3.2 kmh 14.0 mph22.5 kmh 30.55 in1034.5 mb 0.00 in0.0 mm 0.00 in0.0 mm 0.04 in1.0 mm
06:44 PM 15.1°F-9.4°C 9.5°F-12.5°C 78% 2.0 mph NNE3.2 kmh NNE 8.0 mph12.9 kmh 30.54 in1034.2 mb 0.00 in0.0 mm 0.00 in0.0 mm 0.04 in1.0 mm
06:49 PM 15.1°F-9.4°C 9.5°F-12.5°C 78% 4.0 mph N6.4 kmh N 12.0 mph19.3 kmh 30.55 in1034.5 mb 0.00 in0.0 mm 0.00 in0.0 mm 0.04 in1.0 mm
06:54 PM 15.1°F-9.4°C 9.5°F-12.5°C 78% 1.0 mph N1.6 kmh N 12.0 mph19.3 kmh 30.55 in1034.5 mb 0.00 in0.0 mm 0.00 in0.0 mm 0.04 in1.0 mm
06:59 PM 15.1°F-9.4°C 9.5°F-12.5°C 78% 1.0 mph N1.6 kmh N 12.0 mph19.3 kmh 30.55 in1034.5 mb 0.00 in0.0 mm 0.00 in0.0 mm 0.04 in1.0 mm
07:04 PM 15.1°F-9.4°C 9.5°F-12.5°C 78% 2.0 mph NNW3.2 kmh NNW 12.0 mph19.3 kmh 30.55 in1034.5 mb 0.00 in0.0 mm 0.00 in0.0 mm 0.04 in1.0 mm
07:09 PM 15.1°F-9.4°C 9.5°F-12.5°C 78% 3.0 mph N4.8 kmh N 7.0 mph11.3 kmh 30.55 in1034.5 mb 0.00 in0.0 mm 0.00 in0.0 mm 0.04 in1.0 mm
07:14 PM 15.1°F-9.4°C 9.5°F-12.5°C 78% 3.0 mph NW4.8 kmh NW 7.0 mph11.3 kmh 30.55 in1034.5 mb 0.00 in0.0 mm 0.00 in0.0 mm 0.04 in1.0 mm
07:19 PM 15.1°F-9.4°C 9.5°F-12.5°C 78% 3.0 mph WNW4.8 kmh WNW 9.0 mph14.5 kmh 30.56 in1034.9 mb 0.00 in0.0 mm 0.00 in0.0 mm 0.04 in1.0 mm
07:24 PM 15.1°F-9.4°C 9.5°F-12.5°C 78% 3.0 mph NNW4.8 kmh NNW 9.0 mph14.5 kmh 30.56 in1034.9 mb 0.00 in0.0 mm 0.00 in0.0 mm 0.04 in1.0 mm
07:29 PM 15.2°F-9.3°C 9.6°F-12.4°C 78% 6.0 mph NW9.7 kmh NW 9.0 mph14.5 kmh 30.56 in1034.9 mb 0.00 in0.0 mm 0.00 in0.0 mm 0.04 in1.0 mm
07:34 PM 15.2°F-9.3°C 9.6°F-12.4°C 78% 2.0 mph NW3.2 kmh NW 9.0 mph14.5 kmh 30.56 in1034.9 mb 0.00 in0.0 mm 0.00 in0.0 mm 0.04 in1.0 mm
07:39 PM 15.3°F-9.3°C 9.7°F-12.4°C 78% 1.0 mph N1.6 kmh N 9.0 mph14.5 kmh 30.57 in1035.2 mb 0.00 in0.0 mm 0.00 in0.0 mm 0.04 in1.0 mm
07:44 PM 15.3°F-9.3°C 10.0°F-12.2°C 79% 3.0 mph NNW4.8 kmh NNW 9.0 mph14.5 kmh 30.57 in1035.2 mb 0.00 in0.0 mm 0.00 in0.0 mm 0.04 in1.0 mm
07:49 PM 15.3°F-9.3°C 10.0°F-12.2°C 79% 1.0 mph N1.6 kmh N 7.0 mph11.3 kmh 30.57 in1035.2 mb 0.00 in0.0 mm 0.00 in0.0 mm 0.04 in1.0 mm
07:55 PM 15.3°F-9.3°C 10.0°F-12.2°C 79% 4.0 mph NW6.4 kmh NW 6.0 mph9.7 kmh 30.58 in1035.6 mb 0.00 in0.0 mm 0.00 in0.0 mm 0.04 in1.0 mm
08:00 PM 15.3°F-9.3°C 10.0°F-12.2°C 79% 4.0 mph NW6.4 kmh NW 7.0 mph11.3 kmh 30.58 in1035.6 mb 0.00 in0.0 mm 0.00 in0.0 mm 0.04 in1.0 mm
08:05 PM 15.4°F-9.2°C 10.1°F-12.2°C 79% 1.0 mph NNE1.6 kmh NNE 7.0 mph11.3 kmh 30.58 in1035.6 mb 0.00 in0.0 mm 0.00 in0.0 mm 0.04 in1.0 mm
08:10 PM 15.4°F-9.2°C 10.1°F-12.2°C 79% 4.0 mph NNW6.4 kmh NNW 7.0 mph11.3 kmh 30.58 in1035.6 mb 0.00 in0.0 mm 0.00 in0.0 mm 0.04 in1.0 mm
08:15 PM 15.4°F-9.2°C 10.1°F-12.2°C 79% 5.0 mph NNW8.0 kmh NNW 8.0 mph12.9 kmh 30.59 in1035.9 mb 0.00 in0.0 mm 0.00 in0.0 mm 0.04 in1.0 mm
08:20 PM 15.4°F-9.2°C 10.1°F-12.2°C 79% 1.0 mph N1.6 kmh N 8.0 mph12.9 kmh 30.59 in1035.9 mb 0.00 in0.0 mm 0.00 in0.0 mm 0.04 in1.0 mm
08:25 PM 15.3°F-9.3°C 10.0°F-12.2°C 79% 4.0 mph WNW6.4 kmh WNW 8.0 mph12.9 kmh 30.59 in1035.9 mb 0.00 in0.0 mm 0.00 in0.0 mm 0.04 in1.0 mm
08:30 PM 15.4°F-9.2°C 10.1°F-12.2°C 79% 3.0 mph NW4.8 kmh NW 8.0 mph12.9 kmh 30.59 in1035.9 mb 0.00 in0.0 mm 0.00 in0.0 mm 0.04 in1.0 mm
08:35 PM 15.3°F-9.3°C 10.0°F-12.2°C 79% 3.0 mph N4.8 kmh N 5.0 mph8.0 kmh 30.59 in1035.9 mb 0.00 in0.0 mm 0.00 in0.0 mm 0.04 in1.0 mm
08:40 PM 15.4°F-9.2°C 10.1°F-12.2°C 79% 1.0 mph 1.6 kmh 7.0 mph11.3 kmh 30.59 in1035.9 mb 0.00 in0.0 mm 0.00 in0.0 mm 0.04 in1.0 mm
08:45 PM 15.4°F-9.2°C 10.1°F-12.2°C 79% 2.0 mph NNW3.2 kmh NNW 7.0 mph11.3 kmh 30.60 in1036.2 mb 0.00 in0.0 mm 0.00 in0.0 mm 0.04 in1.0 mm
08:50 PM 15.4°F-9.2°C 10.1°F-12.2°C 79% 1.0 mph WNW1.6 kmh WNW 7.0 mph11.3 kmh 30.60 in1036.2 mb 0.00 in0.0 mm 0.00 in0.0 mm 0.04 in1.0 mm
08:55 PM 15.4°F-9.2°C 10.1°F-12.2°C 79% 2.0 mph N3.2 kmh N 9.0 mph14.5 kmh 30.60 in1036.2 mb 0.00 in0.0 mm 0.00 in0.0 mm 0.04 in1.0 mm
09:00 PM 15.4°F-9.2°C 10.1°F-12.2°C 79% 3.0 mph N4.8 kmh N 9.0 mph14.5 kmh 30.61 in1036.6 mb 0.00 in0.0 mm 0.00 in0.0 mm 0.04 in1.0 mm
09:05 PM 15.5°F-9.2°C 10.2°F-12.1°C 79% 3.0 mph N4.8 kmh N 9.0 mph14.5 kmh 30.61 in1036.6 mb 0.00 in0.0 mm 0.00 in0.0 mm 0.04 in1.0 mm
09:10 PM 15.5°F-9.2°C 10.5°F-11.9°C 80% 1.0 mph NW1.6 kmh NW 9.0 mph14.5 kmh 30.61 in1036.6 mb 0.00 in0.0 mm 0.00 in0.0 mm 0.04 in1.0 mm
09:15 PM 15.5°F-9.2°C 10.5°F-11.9°C 80% 2.0 mph NW3.2 kmh NW 5.0 mph8.0 kmh 30.61 in1036.6 mb 0.00 in0.0 mm 0.00 in0.0 mm 0.04 in1.0 mm
09:20 PM 15.5°F-9.2°C 10.5°F-11.9°C 80% 1.0 mph NW1.6 kmh NW 5.0 mph8.0 kmh 30.61 in1036.6 mb 0.00 in0.0 mm 0.00 in0.0 mm 0.04 in1.0 mm
09:25 PM 15.5°F-9.2°C 10.5°F-11.9°C 80% 2.0 mph NW3.2 kmh NW 4.0 mph6.4 kmh 30.61 in1036.6 mb 0.00 in0.0 mm 0.00 in0.0 mm 0.04 in1.0 mm
09:30 PM 15.4°F-9.2°C 10.4°F-12.0°C 80% 1.0 mph N1.6 kmh N 5.0 mph8.0 kmh 30.61 in1036.6 mb 0.00 in0.0 mm 0.00 in0.0 mm 0.04 in1.0 mm
09:35 PM 15.4°F-9.2°C 10.4°F-12.0°C 80% 2.0 mph N3.2 kmh N 5.0 mph8.0 kmh 30.61 in1036.6 mb 0.00 in0.0 mm 0.00 in0.0 mm 0.04 in1.0 mm
09:40 PM 15.5°F-9.2°C 10.5°F-11.9°C 80% 2.0 mph N3.2 kmh N 4.0 mph6.4 kmh 30.61 in1036.6 mb 0.00 in0.0 mm 0.00 in0.0 mm 0.04 in1.0 mm
09:45 PM 15.5°F-9.2°C 10.5°F-11.9°C 80% 2.0 mph NW3.2 kmh NW 5.0 mph8.0 kmh 30.62 in1036.9 mb 0.00 in0.0 mm 0.00 in0.0 mm 0.04 in1.0 mm
09:50 PM 15.5°F-9.2°C 10.5°F-11.9°C 80% 3.0 mph 4.8 kmh 6.0 mph9.7 kmh 30.62 in1036.9 mb 0.00 in0.0 mm 0.00 in0.0 mm 0.04 in1.0 mm
09:55 PM 15.5°F-9.2°C 10.5°F-11.9°C 80% 2.0 mph NNW3.2 kmh NNW 6.0 mph9.7 kmh 30.62 in1036.9 mb 0.00 in0.0 mm 0.00 in0.0 mm 0.04 in1.0 mm
10:00 PM 15.6°F-9.1°C 10.6°F-11.9°C 80% 2.0 mph NNW3.2 kmh NNW 6.0 mph9.7 kmh 30.62 in1036.9 mb 0.00 in0.0 mm 0.00 in0.0 mm 0.04 in1.0 mm
10:05 PM 15.6°F-9.1°C 10.6°F-11.9°C 80% 2.0 mph NNW3.2 kmh NNW 6.0 mph9.7 kmh 30.62 in1036.9 mb 0.00 in0.0 mm 0.00 in0.0 mm 0.04 in1.0 mm
10:10 PM 15.6°F-9.1°C 10.6°F-11.9°C 80% 1.0 mph N1.6 kmh N 6.0 mph9.7 kmh 30.62 in1036.9 mb 0.00 in0.0 mm 0.00 in0.0 mm 0.04 in1.0 mm
10:15 PM 15.6°F-9.1°C 10.6°F-11.9°C 80% 3.0 mph N4.8 kmh N 6.0 mph9.7 kmh 30.62 in1036.9 mb 0.00 in0.0 mm 0.00 in0.0 mm 0.04 in1.0 mm
10:20 PM 15.6°F-9.1°C 10.6°F-11.9°C 80% 2.0 mph N3.2 kmh N 6.0 mph9.7 kmh 30.62 in1036.9 mb 0.00 in0.0 mm 0.00 in0.0 mm 0.04 in1.0 mm
10:25 PM 15.6°F-9.1°C 10.6°F-11.9°C 80% 4.0 mph WNW6.4 kmh WNW 6.0 mph9.7 kmh 30.62 in1036.9 mb 0.00 in0.0 mm 0.00 in0.0 mm 0.04 in1.0 mm
10:30 PM 15.6°F-9.1°C 10.6°F-11.9°C 80% Calm Calm 6.0 mph9.7 kmh 30.62 in1036.9 mb 0.00 in0.0 mm 0.00 in0.0 mm 0.04 in1.0 mm
10:35 PM 15.6°F-9.1°C 10.9°F-11.7°C 81% 1.0 mph WNW1.6 kmh WNW 2.0 mph3.2 kmh 30.62 in1036.9 mb 0.00 in0.0 mm 0.00 in0.0 mm 0.04 in1.0 mm
10:40 PM 15.5°F-9.2°C 10.8°F-11.8°C 81% Calm Calm -- 30.63 in1037.3 mb 0.00 in0.0 mm 0.00 in0.0 mm 0.04 in1.0 mm
10:45 PM 15.5°F-9.2°C 10.8°F-11.8°C 81% Calm Calm -- 30.63 in1037.3 mb 0.00 in0.0 mm 0.00 in0.0 mm 0.04 in1.0 mm
10:50 PM 15.5°F-9.2°C 10.8°F-11.8°C 81% 2.0 mph 3.2 kmh 3.0 mph4.8 kmh 30.62 in1036.9 mb 0.00 in0.0 mm 0.00 in0.0 mm 0.04 in1.0 mm
10:55 PM 15.5°F-9.2°C 10.8°F-11.8°C 81% Calm Calm 3.0 mph4.8 kmh 30.63 in1037.3 mb 0.00 in0.0 mm 0.00 in0.0 mm 0.04 in1.0 mm
11:03 PM 15.4°F-9.2°C 10.7°F-11.8°C 81% 3.0 mph N4.8 kmh N 3.0 mph4.8 kmh 30.63 in1037.3 mb 0.00 in0.0 mm 0.00 in0.0 mm 0.04 in1.0 mm
11:08 PM 15.4°F-9.2°C 10.7°F-11.8°C 81% Calm Calm 4.0 mph6.4 kmh 30.63 in1037.3 mb 0.00 in0.0 mm 0.00 in0.0 mm 0.04 in1.0 mm
11:13 PM 15.3°F-9.3°C 10.6°F-11.9°C 81% 2.0 mph NNE3.2 kmh NNE 5.0 mph8.0 kmh 30.63 in1037.3 mb 0.00 in0.0 mm 0.00 in0.0 mm 0.04 in1.0 mm
11:18 PM 15.3°F-9.3°C 10.6°F-11.9°C 81% 4.0 mph NE6.4 kmh NE 7.0 mph11.3 kmh 30.63 in1037.3 mb 0.00 in0.0 mm 0.00 in0.0 mm 0.04 in1.0 mm
11:23 PM 15.3°F-9.3°C 10.6°F-11.9°C 81% 2.0 mph NNW3.2 kmh NNW 7.0 mph11.3 kmh 30.63 in1037.3 mb 0.00 in0.0 mm 0.00 in0.0 mm 0.04 in1.0 mm
11:28 PM 15.3°F-9.3°C 10.6°F-11.9°C 81% 4.0 mph NE6.4 kmh NE 7.0 mph11.3 kmh 30.63 in1037.3 mb 0.00 in0.0 mm 0.00 in0.0 mm 0.04 in1.0 mm
11:33 PM 15.3°F-9.3°C 10.3°F-12.1°C 80% 3.0 mph N4.8 kmh N 7.0 mph11.3 kmh 30.63 in1037.3 mb 0.00 in0.0 mm 0.00 in0.0 mm 0.04 in1.0 mm
11:38 PM 15.2°F-9.3°C 10.2°F-12.1°C 80% 3.0 mph NNW4.8 kmh NNW 7.0 mph11.3 kmh 30.63 in1037.3 mb 0.00 in0.0 mm 0.00 in0.0 mm 0.04 in1.0 mm
11:43 PM 15.2°F-9.3°C 10.2°F-12.1°C 80% 2.0 mph NNE3.2 kmh NNE 7.0 mph11.3 kmh 30.64 in1037.6 mb 0.00 in0.0 mm 0.00 in0.0 mm 0.04 in1.0 mm
11:48 PM 15.2°F-9.3°C 10.2°F-12.1°C 80% 3.0 mph N4.8 kmh N 7.0 mph11.3 kmh 30.64 in1037.6 mb 0.00 in0.0 mm 0.00 in0.0 mm 0.04 in1.0 mm
11:53 PM 15.2°F-9.3°C 10.2°F-12.1°C 80% 1.0 mph N1.6 kmh N 7.0 mph11.3 kmh 30.64 in1037.6 mb 0.00 in0.0 mm 0.00 in0.0 mm 0.04 in1.0 mm
11:58 PM 15.2°F-9.3°C 10.2°F-12.1°C 80% Calm Calm -- 30.64 in1037.6 mb 0.00 in0.0 mm 0.00 in0.0 mm 0.04 in1.0 mm